Funchalense 5 — CSKN — position and weather

sailwx.info

Track history (hours):
 
Tides and Currents Weather Stations Pressure Air Temp Water Temp Dewpoint Dewpoint Depression Visibility Wind Speed Wind Dir Waves Ship Positions

Funchalense 5

Last reported at 2017-Apr-23 04:02 UTC. Time now 2017-Apr-27 18:54 UTC.
Position N 37°24' W 010°56'.

Length 127 m; draft 7.6 m.

Type: Ship. MMSI: 255804250.

Date/timePositionNaut miles runAvg speedWind from/ knotsBaromVisibWave heightAir tempDewpointWater temp
2017-Apr-23 04:02N 37°24' W 010°56'016.1
2017-Apr-23 04:00N 37°25' W 010°55'816.3
2017-Apr-23 03:30N 37°30' W 010°48'816.0
2017-Apr-23 03:00N 37°36' W 010°41'816.2
2017-Apr-23 02:30N 37°42' W 010°34'816.0
2017-Apr-23 02:00N 37°47' W 010°26'816.2
2017-Apr-23 01:30N 37°53' W 010°19'816.0
2017-Apr-23 01:00N 37°58' W 010°12'815.8
2017-Apr-23 00:30N 38°04' W 010°05'815.7
2017-Apr-23 00:00N 38°10' W 009°58'815.8
2017-Apr-22 23:30N 38°16' W 009°51'815.6
2017-Apr-22 23:00N 38°21' W 009°44'815.6
2017-Apr-22 22:31N 38°27' W 009°37'816.2
2017-Apr-22 22:00N 38°32' W 009°30'816.2
2017-Apr-22 21:30N 38°38' W 009°22'713.3
2017-Apr-22 20:59N 38°41' W 009°14'510.3
2017-Apr-22 20:30N 38°42' W 009°08'2 1.1
2017-Apr-22 18:48N 38°43' W 009°07'0 0.0
2017-Apr-22 18:24N 38°43' W 009°07'0 0.0
2017-Apr-22 18:00N 38°43' W 009°07'0 0.0
2017-Apr-22 17:23N 38°43' W 009°07'0 0.0
2017-Apr-22 16:56N 38°43' W 009°07'0 0.0
2017-Apr-22 16:23N 38°43' W 009°07'0 0.0
2017-Apr-22 15:26N 38°43' W 009°07'0 0.0
2017-Apr-22 14:37N 38°43' W 009°07'0 0.0
2017-Apr-22 14:13N 38°43' W 009°07'0 0.0
2017-Apr-22 13:22N 38°43' W 009°07'0 0.0
2017-Apr-22 12:51N 38°43' W 009°07'0 0.0
2017-Apr-22 11:30N 38°43' W 009°07'0 0.0
2017-Apr-22 10:32N 38°43' W 009°07'0 0.0
2017-Apr-22 10:29N 38°43' W 009°07'0 0.0
2017-Apr-22 09:26N 38°43' W 009°07'0 0.0
2017-Apr-22 08:53N 38°43' W 009°07'0 0.0
2017-Apr-22 08:29N 38°43' W 009°07'0 0.0
2017-Apr-22 07:55N 38°43' W 009°07'0 0.0
2017-Apr-22 07:25N 38°43' W 009°07'0 0.0
2017-Apr-22 06:58N 38°43' W 009°07'0 0.0
2017-Apr-22 06:28N 38°43' W 009°07'0 0.0
2017-Apr-22 06:00N 38°43' W 009°07'0 0.0
2017-Apr-22 05:21N 38°43' W 009°07'0 0.0
2017-Apr-22 04:54N 38°43' W 009°07'0 0.0
2017-Apr-22 04:24N 38°43' W 009°07'0 0.0
2017-Apr-22 03:57N 38°43' W 009°07'0 0.0
2017-Apr-22 03:29N 38°43' W 009°07'0 0.0
2017-Apr-22 02:56N 38°43' W 009°07'0 0.2
2017-Apr-22 02:27N 38°43' W 009°07'2 4.5
2017-Apr-22 02:00N 38°42' W 009°09'813.5
2017-Apr-22 01:23N 38°40' W 009°19'514.2
2017-Apr-22 01:00N 38°37' W 009°25'815.7
2017-Apr-22 00:30N 38°38' W 009°35'714.3
2017-Apr-22 00:00N 38°41' W 009°43'816.3
2017-Apr-21 23:30N 38°49' W 009°44'815.9
2017-Apr-21 23:00N 38°57' W 009°45'816.2
2017-Apr-21 22:30N 39°05' W 009°45'815.7
2017-Apr-21 22:00N 39°13' W 009°45'815.9
2017-Apr-21 21:30N 39°21' W 009°45'916.3
2017-Apr-21 20:57N 39°30' W 009°45'916.2
2017-Apr-21 20:24N 39°39' W 009°44'616.2
2017-Apr-21 20:00N 39°45' W 009°43'815.9
2017-Apr-21 19:28N 39°53' W 009°40'1016.3
2017-Apr-21 18:53N 40°02' W 009°33'40 1.2
2017-Apr-20 08:50N 39°26' W 009°58'616.4
2017-Apr-20 08:29N 39°22' W 010°03'816.4
2017-Apr-20 08:00N 39°16' W 010°10'816.8
2017-Apr-20 07:30N 39°09' W 010°16'816.3
2017-Apr-20 07:00N 39°03' W 010°23'816.0
2017-Apr-20 06:31N 38°57' W 010°30'  
2017-Apr-17 19:13N 32°44' W 016°44'0 0.0
2017-Apr-17 18:58N 32°44' W 016°44'0 0.0
2017-Apr-17 18:28N 32°44' W 016°44'0 0.0
2017-Apr-17 17:58N 32°44' W 016°44'0 0.0
2017-Apr-17 17:30N 32°44' W 016°44'0 0.0
2017-Apr-17 17:00N 32°44' W 016°44'0 0.0
2017-Apr-17 16:27N 32°44' W 016°44'0 0.0
2017-Apr-17 16:00N 32°44' W 016°44'29 2.3
2017-Apr-17 03:30N 33°01' W 016°16'1115.5
2017-Apr-17 02:47N 33°10' W 016°09'715.7
2017-Apr-17 02:19N 33°16' W 016°04'715.7
2017-Apr-17 01:54N 33°22' W 015°59'615.4
2017-Apr-17 01:31N 33°26' W 015°55'815.4
2017-Apr-17 01:00N 33°32' W 015°49'815.5
2017-Apr-17 00:30N 33°38' W 015°43'815.4
2017-Apr-17 00:00N 33°44' W 015°37'815.3
2017-Apr-16 23:30N 33°50' W 015°32'815.3
2017-Apr-16 23:00N 33°57' W 015°26'815.4
2017-Apr-16 22:30N 34°03' W 015°20'815.2
2017-Apr-16 22:00N 34°09' W 015°15'815.4
2017-Apr-16 21:30N 34°15' W 015°09'815.5
2017-Apr-16 21:00N 34°20' W 015°03'815.4
2017-Apr-16 20:30N 34°26' W 014°57'714.9
2017-Apr-16 20:00N 34°32' W 014°51'814.7
2017-Apr-16 19:26N 34°39' W 014°45'614.9
2017-Apr-16 19:00N 34°43' W 014°39'714.9
2017-Apr-16 18:30N 34°48' W 014°33'715.0
2017-Apr-16 18:00N 34°54' W 014°26'815.1
2017-Apr-16 17:30N 34°59' W 014°20'714.9
2017-Apr-16 17:00N 35°04' W 014°13'814.9
2017-Apr-16 16:29N 35°10' W 014°06'714.9
2017-Apr-16 16:00N 35°14' W 013°60'815.2
2017-Apr-16 15:30N 35°19' W 013°53'815.0
2017-Apr-16 14:59N 35°24' W 013°46'1514.9
2017-Apr-16 14:00N 35°34' W 013°32'715.1
2017-Apr-16 13:30N 35°39' W 013°25'815.1
2017-Apr-16 13:01N 35°45' W 013°19'815.2
2017-Apr-16 12:30N 35°50' W 013°12'915.4
2017-Apr-16 11:57N 35°56' W 013°04'715.4
2017-Apr-16 11:30N 36°00' W 012°58'1015.3
2017-Apr-16 10:51N 36°07' W 012°49'615.3
2017-Apr-16 10:28N 36°11' W 012°44'1115.7
2017-Apr-16 09:46N 36°19' W 012°34'616.0
2017-Apr-16 09:22N 36°23' W 012°28'1015.8
2017-Apr-16 08:44N 36°30' W 012°19'415.7
2017-Apr-16 08:27N 36°33' W 012°15'5715.8
2017-Apr-16 04:51N 37°11' W 011°22'715.6
2017-Apr-16 04:23N 37°16' W 011°15'915.5
2017-Apr-16 03:50N 37°22' W 011°07'615.4
2017-Apr-16 03:28N 37°25' W 011°02'715.5
2017-Apr-16 03:01N 37°30' W 010°55'915.3
2017-Apr-16 02:23N 37°36' W 010°46'615.4
2017-Apr-16 01:59N 37°40' W 010°40'715.5
2017-Apr-16 01:30N 37°45' W 010°33'815.4
2017-Apr-16 01:00N 37°51' W 010°26'815.7
2017-Apr-16 00:30N 37°56' W 010°19'815.8
2017-Apr-16 00:00N 38°02' W 010°12'815.8
2017-Apr-15 23:30N 38°07' W 010°04'815.9
2017-Apr-15 23:00N 38°12' W 009°57'815.8
2017-Apr-15 22:29N 38°18' W 009°49'715.6
2017-Apr-15 22:00N 38°23' W 009°42'815.7
2017-Apr-15 21:30N 38°28' W 009°35'815.7
2017-Apr-15 21:00N 38°34' W 009°27'815.7
2017-Apr-15 20:30N 38°39' W 009°20'916.4
2017-Apr-15 19:57N 38°42' W 009°09'2 0.8
2017-Apr-15 17:08N 38°43' W 009°07'0 0.0
2017-Apr-15 16:59N 38°43' W 009°07'0 0.0
2017-Apr-15 16:29N 38°43' W 009°07'0 0.0
2017-Apr-15 15:52N 38°43' W 009°07'0 0.0
2017-Apr-15 15:28N 38°43' W 009°07'0 0.0
2017-Apr-15 14:58N 38°43' W 009°07'0 0.0
2017-Apr-15 13:58N 38°43' W 009°07'0 0.0
2017-Apr-15 13:30N 38°43' W 009°07'0 0.0
2017-Apr-15 08:49N 38°43' W 009°07'0 0.0
2017-Apr-15 08:25N 38°43' W 009°07'0 0.0
2017-Apr-15 07:58N 38°43' W 009°07'0 0.0
2017-Apr-15 07:28N 38°43' W 009°07'0 0.0
2017-Apr-15 06:58N 38°43' W 009°07'0 0.0
2017-Apr-15 06:24N 38°43' W 009°07'0 0.0
2017-Apr-15 05:39N 38°43' W 009°07'0 0.0
2017-Apr-15 05:27N 38°43' W 009°07'0 0.0
2017-Apr-15 05:00N 38°43' W 009°07'0 0.0
2017-Apr-15 04:20N 38°43' W 009°07'0 0.0
2017-Apr-15 03:56N 38°43' W 009°07'0 0.0
2017-Apr-15 03:26N 38°43' W 009°07'0 0.0
2017-Apr-15 02:50N 38°43' W 009°07'0 0.0
2017-Apr-15 02:20N 38°43' W 009°07'0 0.0
2017-Apr-15 01:49N 38°43' W 009°07'0 0.0
2017-Apr-15 01:25N 38°43' W 009°07'0 0.0
2017-Apr-15 00:52N 38°43' W 009°07'0 0.0
2017-Apr-15 00:10N 38°43' W 009°07'0 0.0
2017-Apr-14 23:51N 38°43' W 009°07'0 0.0
2017-Apr-14 22:27N 38°43' W 009°07'0 0.0
2017-Apr-14 21:48N 38°43' W 009°07'0 0.0
2017-Apr-14 21:26N 38°43' W 009°07'0 0.0
2017-Apr-14 20:47N 38°43' W 009°07'0 0.0
2017-Apr-14 20:29N 38°43' W 009°07'0 0.0
2017-Apr-14 19:59N 38°43' W 009°07'0 0.0
2017-Apr-14 19:26N 38°43' W 009°07'0 0.0
2017-Apr-14 18:58N 38°43' W 009°07'0 0.0
2017-Apr-14 18:28N 38°43' W 009°07'0 0.0
2017-Apr-14 17:58N 38°43' W 009°07'0 0.0
2017-Apr-14 17:27N 38°43' W 009°07'0 0.0
2017-Apr-14 17:00N 38°43' W 009°07'0 0.0
2017-Apr-14 16:30N 38°43' W 009°07'0 0.0
2017-Apr-14 16:00N 38°43' W 009°07'0 0.0
2017-Apr-14 15:27N 38°43' W 009°07'0 0.0
2017-Apr-14 14:57N 38°43' W 009°07'0 0.0
2017-Apr-14 13:53N 38°43' W 009°07'0 0.0
2017-Apr-14 13:26N 38°43' W 009°07'0 0.0
2017-Apr-14 12:59N 38°43' W 009°07'0 0.0
2017-Apr-14 12:29N 38°43' W 009°07'0 0.0
2017-Apr-14 11:58N 38°43' W 009°07'0 0.0
2017-Apr-14 11:19N 38°43' W 009°07'0 0.0
2017-Apr-14 10:55N 38°43' W 009°07'0 0.0
2017-Apr-14 10:28N 38°43' W 009°07'0 0.0
2017-Apr-14 09:51N 38°43' W 009°07'0 0.0
2017-Apr-14 09:27N 38°43' W 009°07'0 0.0
2017-Apr-14 08:57N 38°43' W 009°07'0 0.0
2017-Apr-14 08:30N 38°43' W 009°07'0 0.0
2017-Apr-14 07:57N 38°43' W 009°07'0 0.0
2017-Apr-14 07:29N 38°43' W 009°07'0 0.0
2017-Apr-14 06:59N 38°43' W 009°07'0 0.0
2017-Apr-14 06:29N 38°43' W 009°07'0 0.0
2017-Apr-14 05:59N 38°43' W 009°07'0 0.0
2017-Apr-14 05:28N 38°43' W 009°07'0 0.0
2017-Apr-14 04:58N 38°43' W 009°07'0 0.0
2017-Apr-14 04:28N 38°43' W 009°07'0 0.0
2017-Apr-14 03:58N 38°43' W 009°07'0 0.0
2017-Apr-14 03:28N 38°43' W 009°07'0 0.0
2017-Apr-14 02:51N 38°43' W 009°07'0 0.0
2017-Apr-14 00:05N 38°43' W 009°07'0 0.0
2017-Apr-13 23:47N 38°43' W 009°07'0 0.0
2017-Apr-13 23:29N 38°43' W 009°07'0 0.0
2017-Apr-13 22:59N 38°43' W 009°07'0 0.0
2017-Apr-13 22:10N 38°43' W 009°07'0 0.0
2017-Apr-13 21:52N 38°43' W 009°07'0 0.0
2017-Apr-13 21:19N 38°43' W 009°07'0 0.0
2017-Apr-13 20:58N 38°43' W 009°07'0 0.0
2017-Apr-13 20:22N 38°43' W 009°07'0 0.0
2017-Apr-13 19:57N 38°43' W 009°07'0 0.0
2017-Apr-13 19:30N 38°43' W 009°07'0 0.0
2017-Apr-13 18:57N 38°43' W 009°07'0 0.0
2017-Apr-13 18:03N 38°43' W 009°07'0 0.0
2017-Apr-13 17:44N 38°43' W 009°07'0 0.0
2017-Apr-13 17:20N 38°43' W 009°07'0 0.0
2017-Apr-13 16:50N 38°43' W 009°07'0 0.0
2017-Apr-13 16:29N 38°43' W 009°07'0 0.0
2017-Apr-13 15:59N 38°43' W 009°07'0 0.0
2017-Apr-13 14:46N 38°43' W 009°07'0 0.0
2017-Apr-13 13:46N 38°43' W 009°07'0 0.0
2017-Apr-13 13:28N 38°43' W 009°07'0 0.0
2017-Apr-13 11:42N 38°43' W 009°07'0 0.0
2017-Apr-13 11:27N 38°43' W 009°07'0 0.0
2017-Apr-13 10:20N 38°43' W 009°07'0 0.0
2017-Apr-13 09:56N 38°43' W 009°07'0 0.0
2017-Apr-13 09:26N 38°43' W 009°07'0 0.0
2017-Apr-13 08:53N 38°43' W 009°07'0 0.0
2017-Apr-13 08:23N 38°43' W 009°07'1 1.1
2017-Apr-13 07:51N 38°43' W 009°07'4 9.6
2017-Apr-13 07:24N 38°41' W 009°12'512.4
2017-Apr-13 07:00N 38°40' W 009°18'815.4
2017-Apr-13 06:31N 38°35' W 009°25'816.4
2017-Apr-13 06:01N 38°30' W 009°33'816.4
2017-Apr-13 05:30N 38°24' W 009°41'816.7
2017-Apr-13 05:00N 38°18' W 009°49'1016.7
2017-Apr-13 04:26N 38°12' W 009°58'  
Track history (hours):
 
Tides and Currents Weather Stations Pressure Air Temp Water Temp Dewpoint Dewpoint Depression Visibility Wind Speed Wind Dir Waves Ship Positions

Funchalense 5

Last reported at 2017-Apr-23 04:02 UTC. Time now 2017-Apr-27 18:54 UTC.
Position N 37°24' W 010°56'.

Length 127 m; draft 7.6 m.

Type: Ship. MMSI: 255804250.

Date/timePositionNaut miles runAvg speedWind from/ knotsBaromVisibWave heightAir tempDewpointWater temp
2017-Apr-23 04:02N 37°24' W 010°56'016.1
2017-Apr-23 04:00N 37°25' W 010°55'816.3
2017-Apr-23 03:30N 37°30' W 010°48'816.0
2017-Apr-23 03:00N 37°36' W 010°41'816.2
2017-Apr-23 02:30N 37°42' W 010°34'816.0
2017-Apr-23 02:00N 37°47' W 010°26'816.2
2017-Apr-23 01:30N 37°53' W 010°19'816.0
2017-Apr-23 01:00N 37°58' W 010°12'815.8
2017-Apr-23 00:30N 38°04' W 010°05'815.7
2017-Apr-23 00:00N 38°10' W 009°58'815.8
2017-Apr-22 23:30N 38°16' W 009°51'815.6
2017-Apr-22 23:00N 38°21' W 009°44'815.6
2017-Apr-22 22:31N 38°27' W 009°37'816.2
2017-Apr-22 22:00N 38°32' W 009°30'816.2
2017-Apr-22 21:30N 38°38' W 009°22'713.3
2017-Apr-22 20:59N 38°41' W 009°14'510.3
2017-Apr-22 20:30N 38°42' W 009°08'2 1.1
2017-Apr-22 18:48N 38°43' W 009°07'0 0.0
2017-Apr-22 18:24N 38°43' W 009°07'0 0.0
2017-Apr-22 18:00N 38°43' W 009°07'0 0.0
2017-Apr-22 17:23N 38°43' W 009°07'0 0.0
2017-Apr-22 16:56N 38°43' W 009°07'0 0.0
2017-Apr-22 16:23N 38°43' W 009°07'0 0.0
2017-Apr-22 15:26N 38°43' W 009°07'0 0.0
2017-Apr-22 14:37N 38°43' W 009°07'0 0.0
2017-Apr-22 14:13N 38°43' W 009°07'0 0.0
2017-Apr-22 13:22N 38°43' W 009°07'0 0.0
2017-Apr-22 12:51N 38°43' W 009°07'0 0.0
2017-Apr-22 11:30N 38°43' W 009°07'0 0.0
2017-Apr-22 10:32N 38°43' W 009°07'0 0.0
2017-Apr-22 10:29N 38°43' W 009°07'0 0.0
2017-Apr-22 09:26N 38°43' W 009°07'0 0.0
2017-Apr-22 08:53N 38°43' W 009°07'0 0.0
2017-Apr-22 08:29N 38°43' W 009°07'0 0.0
2017-Apr-22 07:55N 38°43' W 009°07'0 0.0
2017-Apr-22 07:25N 38°43' W 009°07'0 0.0
2017-Apr-22 06:58N 38°43' W 009°07'0 0.0
2017-Apr-22 06:28N 38°43' W 009°07'0 0.0
2017-Apr-22 06:00N 38°43' W 009°07'0 0.0
2017-Apr-22 05:21N 38°43' W 009°07'0 0.0
2017-Apr-22 04:54N 38°43' W 009°07'0 0.0
2017-Apr-22 04:24N 38°43' W 009°07'0 0.0
2017-Apr-22 03:57N 38°43' W 009°07'0 0.0
2017-Apr-22 03:29N 38°43' W 009°07'0 0.0
2017-Apr-22 02:56N 38°43' W 009°07'0 0.2
2017-Apr-22 02:27N 38°43' W 009°07'2 4.5
2017-Apr-22 02:00N 38°42' W 009°09'813.5
2017-Apr-22 01:23N 38°40' W 009°19'514.2
2017-Apr-22 01:00N 38°37' W 009°25'815.7
2017-Apr-22 00:30N 38°38' W 009°35'714.3
2017-Apr-22 00:00N 38°41' W 009°43'816.3
2017-Apr-21 23:30N 38°49' W 009°44'815.9
2017-Apr-21 23:00N 38°57' W 009°45'816.2
2017-Apr-21 22:30N 39°05' W 009°45'815.7
2017-Apr-21 22:00N 39°13' W 009°45'815.9
2017-Apr-21 21:30N 39°21' W 009°45'916.3
2017-Apr-21 20:57N 39°30' W 009°45'916.2
2017-Apr-21 20:24N 39°39' W 009°44'616.2
2017-Apr-21 20:00N 39°45' W 009°43'815.9
2017-Apr-21 19:28N 39°53' W 009°40'1016.3
2017-Apr-21 18:53N 40°02' W 009°33'40 1.2
2017-Apr-20 08:50N 39°26' W 009°58'616.4
2017-Apr-20 08:29N 39°22' W 010°03'816.4
2017-Apr-20 08:00N 39°16' W 010°10'816.8
2017-Apr-20 07:30N 39°09' W 010°16'816.3
2017-Apr-20 07:00N 39°03' W 010°23'816.0
2017-Apr-20 06:31N 38°57' W 010°30'  
2017-Apr-17 19:13N 32°44' W 016°44'0 0.0
2017-Apr-17 18:58N 32°44' W 016°44'0 0.0
2017-Apr-17 18:28N 32°44' W 016°44'0 0.0
2017-Apr-17 17:58N 32°44' W 016°44'0 0.0
2017-Apr-17 17:30N 32°44' W 016°44'0 0.0
2017-Apr-17 17:00N 32°44' W 016°44'0 0.0
2017-Apr-17 16:27N 32°44' W 016°44'0 0.0
2017-Apr-17 16:00N 32°44' W 016°44'29 2.3
2017-Apr-17 03:30N 33°01' W 016°16'1115.5
2017-Apr-17 02:47N 33°10' W 016°09'715.7
2017-Apr-17 02:19N 33°16' W 016°04'715.7
2017-Apr-17 01:54N 33°22' W 015°59'615.4
2017-Apr-17 01:31N 33°26' W 015°55'815.4
2017-Apr-17 01:00N 33°32' W 015°49'815.5
2017-Apr-17 00:30N 33°38' W 015°43'815.4
2017-Apr-17 00:00N 33°44' W 015°37'815.3
2017-Apr-16 23:30N 33°50' W 015°32'815.3
2017-Apr-16 23:00N 33°57' W 015°26'815.4
2017-Apr-16 22:30N 34°03' W 015°20'815.2
2017-Apr-16 22:00N 34°09' W 015°15'815.4
2017-Apr-16 21:30N 34°15' W 015°09'815.5
2017-Apr-16 21:00N 34°20' W 015°03'815.4
2017-Apr-16 20:30N 34°26' W 014°57'714.9
2017-Apr-16 20:00N 34°32' W 014°51'814.7
2017-Apr-16 19:26N 34°39' W 014°45'614.9
2017-Apr-16 19:00N 34°43' W 014°39'714.9
2017-Apr-16 18:30N 34°48' W 014°33'715.0
2017-Apr-16 18:00N 34°54' W 014°26'815.1
2017-Apr-16 17:30N 34°59' W 014°20'714.9
2017-Apr-16 17:00N 35°04' W 014°13'814.9
2017-Apr-16 16:29N 35°10' W 014°06'714.9
2017-Apr-16 16:00N 35°14' W 013°60'815.2
2017-Apr-16 15:30N 35°19' W 013°53'815.0
2017-Apr-16 14:59N 35°24' W 013°46'1514.9
2017-Apr-16 14:00N 35°34' W 013°32'715.1
2017-Apr-16 13:30N 35°39' W 013°25'815.1
2017-Apr-16 13:01N 35°45' W 013°19'815.2
2017-Apr-16 12:30N 35°50' W 013°12'915.4
2017-Apr-16 11:57N 35°56' W 013°04'715.4
2017-Apr-16 11:30N 36°00' W 012°58'1015.3
2017-Apr-16 10:51N 36°07' W 012°49'615.3
2017-Apr-16 10:28N 36°11' W 012°44'1115.7
2017-Apr-16 09:46N 36°19' W 012°34'616.0
2017-Apr-16 09:22N 36°23' W 012°28'1015.8
2017-Apr-16 08:44N 36°30' W 012°19'415.7
2017-Apr-16 08:27N 36°33' W 012°15'5715.8
2017-Apr-16 04:51N 37°11' W 011°22'715.6
2017-Apr-16 04:23N 37°16' W 011°15'915.5
2017-Apr-16 03:50N 37°22' W 011°07'615.4
2017-Apr-16 03:28N 37°25' W 011°02'715.5
2017-Apr-16 03:01N 37°30' W 010°55'915.3
2017-Apr-16 02:23N 37°36' W 010°46'615.4
2017-Apr-16 01:59N 37°40' W 010°40'715.5
2017-Apr-16 01:30N 37°45' W 010°33'815.4
2017-Apr-16 01:00N 37°51' W 010°26'815.7
2017-Apr-16 00:30N 37°56' W 010°19'815.8
2017-Apr-16 00:00N 38°02' W 010°12'815.8
2017-Apr-15 23:30N 38°07' W 010°04'815.9
2017-Apr-15 23:00N 38°12' W 009°57'815.8
2017-Apr-15 22:29N 38°18' W 009°49'715.6
2017-Apr-15 22:00N 38°23' W 009°42'815.7
2017-Apr-15 21:30N 38°28' W 009°35'815.7
2017-Apr-15 21:00N 38°34' W 009°27'815.7
2017-Apr-15 20:30N 38°39' W 009°20'916.4
2017-Apr-15 19:57N 38°42' W 009°09'2 0.8
2017-Apr-15 17:08N 38°43' W 009°07'0 0.0
2017-Apr-15 16:59N 38°43' W 009°07'0 0.0
2017-Apr-15 16:29N 38°43' W 009°07'0 0.0
2017-Apr-15 15:52N 38°43' W 009°07'0 0.0
2017-Apr-15 15:28N 38°43' W 009°07'0 0.0
2017-Apr-15 14:58N 38°43' W 009°07'0 0.0
2017-Apr-15 13:58N 38°43' W 009°07'0 0.0
2017-Apr-15 13:30N 38°43' W 009°07'0 0.0
2017-Apr-15 08:49N 38°43' W 009°07'0 0.0
2017-Apr-15 08:25N 38°43' W 009°07'0 0.0
2017-Apr-15 07:58N 38°43' W 009°07'0 0.0
2017-Apr-15 07:28N 38°43' W 009°07'0 0.0
2017-Apr-15 06:58N 38°43' W 009°07'0 0.0
2017-Apr-15 06:24N 38°43' W 009°07'0 0.0
2017-Apr-15 05:39N 38°43' W 009°07'0 0.0
2017-Apr-15 05:27N 38°43' W 009°07'0 0.0
2017-Apr-15 05:00N 38°43' W 009°07'0 0.0
2017-Apr-15 04:20N 38°43' W 009°07'0 0.0
2017-Apr-15 03:56N 38°43' W 009°07'0 0.0
2017-Apr-15 03:26N 38°43' W 009°07'0 0.0
2017-Apr-15 02:50N 38°43' W 009°07'0 0.0
2017-Apr-15 02:20N 38°43' W 009°07'0 0.0
2017-Apr-15 01:49N 38°43' W 009°07'0 0.0
2017-Apr-15 01:25N 38°43' W 009°07'0 0.0
2017-Apr-15 00:52N 38°43' W 009°07'0 0.0
2017-Apr-15 00:10N 38°43' W 009°07'0 0.0
2017-Apr-14 23:51N 38°43' W 009°07'0 0.0
2017-Apr-14 22:27N 38°43' W 009°07'0 0.0
2017-Apr-14 21:48N 38°43' W 009°07'0 0.0
2017-Apr-14 21:26N 38°43' W 009°07'0 0.0
2017-Apr-14 20:47N 38°43' W 009°07'0 0.0
2017-Apr-14 20:29N 38°43' W 009°07'0 0.0
2017-Apr-14 19:59N 38°43' W 009°07'0 0.0
2017-Apr-14 19:26N 38°43' W 009°07'0 0.0
2017-Apr-14 18:58N 38°43' W 009°07'0 0.0
2017-Apr-14 18:28N 38°43' W 009°07'0 0.0
2017-Apr-14 17:58N 38°43' W 009°07'0 0.0
2017-Apr-14 17:27N 38°43' W 009°07'0 0.0
2017-Apr-14 17:00N 38°43' W 009°07'0 0.0
2017-Apr-14 16:30N 38°43' W 009°07'0 0.0
2017-Apr-14 16:00N 38°43' W 009°07'0 0.0
2017-Apr-14 15:27N 38°43' W 009°07'0 0.0
2017-Apr-14 14:57N 38°43' W 009°07'0 0.0
2017-Apr-14 13:53N 38°43' W 009°07'0 0.0
2017-Apr-14 13:26N 38°43' W 009°07'0 0.0
2017-Apr-14 12:59N 38°43' W 009°07'0 0.0
2017-Apr-14 12:29N 38°43' W 009°07'0 0.0
2017-Apr-14 11:58N 38°43' W 009°07'0 0.0
2017-Apr-14 11:19N 38°43' W 009°07'0 0.0
2017-Apr-14 10:55N 38°43' W 009°07'0 0.0
2017-Apr-14 10:28N 38°43' W 009°07'0 0.0
2017-Apr-14 09:51N 38°43' W 009°07'0 0.0
2017-Apr-14 09:27N 38°43' W 009°07'0 0.0
2017-Apr-14 08:57N 38°43' W 009°07'0 0.0
2017-Apr-14 08:30N 38°43' W 009°07'0 0.0
2017-Apr-14 07:57N 38°43' W 009°07'0 0.0
2017-Apr-14 07:29N 38°43' W 009°07'0 0.0
2017-Apr-14 06:59N 38°43' W 009°07'0 0.0
2017-Apr-14 06:29N 38°43' W 009°07'0 0.0
2017-Apr-14 05:59N 38°43' W 009°07'0 0.0
2017-Apr-14 05:28N 38°43' W 009°07'0 0.0
2017-Apr-14 04:58N 38°43' W 009°07'0 0.0
2017-Apr-14 04:28N 38°43' W 009°07'0 0.0
2017-Apr-14 03:58N 38°43' W 009°07'0 0.0
2017-Apr-14 03:28N 38°43' W 009°07'0 0.0
2017-Apr-14 02:51N 38°43' W 009°07'0 0.0
2017-Apr-14 00:05N 38°43' W 009°07'0 0.0
2017-Apr-13 23:47N 38°43' W 009°07'0 0.0
2017-Apr-13 23:29N 38°43' W 009°07'0 0.0
2017-Apr-13 22:59N 38°43' W 009°07'0 0.0
2017-Apr-13 22:10N 38°43' W 009°07'0 0.0
2017-Apr-13 21:52N 38°43' W 009°07'0 0.0
2017-Apr-13 21:19N 38°43' W 009°07'0 0.0
2017-Apr-13 20:58N 38°43' W 009°07'0 0.0
2017-Apr-13 20:22N 38°43' W 009°07'0 0.0
2017-Apr-13 19:57N 38°43' W 009°07'0 0.0
2017-Apr-13 19:30N 38°43' W 009°07'0 0.0
2017-Apr-13 18:57N 38°43' W 009°07'0 0.0
2017-Apr-13 18:03N 38°43' W 009°07'0 0.0
2017-Apr-13 17:44N 38°43' W 009°07'0 0.0
2017-Apr-13 17:20N 38°43' W 009°07'0 0.0
2017-Apr-13 16:50N 38°43' W 009°07'0 0.0
2017-Apr-13 16:29N 38°43' W 009°07'0 0.0
2017-Apr-13 15:59N 38°43' W 009°07'0 0.0
2017-Apr-13 14:46N 38°43' W 009°07'0 0.0
2017-Apr-13 13:46N 38°43' W 009°07'0 0.0
2017-Apr-13 13:28N 38°43' W 009°07'0 0.0
2017-Apr-13 11:42N 38°43' W 009°07'0 0.0
2017-Apr-13 11:27N 38°43' W 009°07'0 0.0
2017-Apr-13 10:20N 38°43' W 009°07'0 0.0
2017-Apr-13 09:56N 38°43' W 009°07'0 0.0
2017-Apr-13 09:26N 38°43' W 009°07'0 0.0
2017-Apr-13 08:53N 38°43' W 009°07'0 0.0
2017-Apr-13 08:23N 38°43' W 009°07'1 1.1
2017-Apr-13 07:51N 38°43' W 009°07'4 9.6
2017-Apr-13 07:24N 38°41' W 009°12'512.4
2017-Apr-13 07:00N 38°40' W 009°18'815.4
2017-Apr-13 06:31N 38°35' W 009°25'816.4
2017-Apr-13 06:01N 38°30' W 009°33'816.4
2017-Apr-13 05:30N 38°24' W 009°41'816.7
2017-Apr-13 05:00N 38°18' W 009°49'1016.7
2017-Apr-13 04:26N 38°12' W 009°58'  

Dump ship's entire track history